Terminal Aerodrome Forecast
Issued by NWS

Home | Current Version | Previous Version | Text Only | Print | Product List | Glossary On
Versions: 1 2 3 4 5 6 7 8 9 10 11 12 13 14 15 16 17 18 19 20 21 22 23 24 25 26 27 28 29 30
000
FTUS43 KGLD 270951 AAC
TAFMCK
TAF AMD
KMCK 270951Z 2710/2806 VRB05KT 6SM BR FEW035
     FM271200 VRB03KT 3SM BR BKN005
      TEMPO 2712/2714 1SM BR OVC004
     FM271500 14004KT 3SM BR SCT015
     FM271600 13004KT P6SM SCT150
     FM280000 15008KT P6SM SCT080 BKN150=

USA.gov is the U.S. government's official web portal to all federal, state and local government web resources and services.